createdAt,value
2022-10-04T00:01:58.206Z,100.00
2022-10-04T00:04:31.989Z,100.00
2022-10-04T00:07:06.631Z,100.00
2022-10-04T00:09:46.690Z,100.00
2022-10-04T00:12:24.206Z,100.00
2022-10-04T00:14:53.036Z,100.00
2022-10-04T00:17:28.852Z,100.00
2022-10-04T00:19:56.010Z,100.00
2022-10-04T00:22:33.175Z,100.00
2022-10-04T00:25:08.557Z,100.00
2022-10-04T00:27:36.620Z,100.00
2022-10-04T00:30:02.877Z,100.00
2022-10-04T00:32:39.016Z,100.00
2022-10-04T00:35:25.307Z,100.00
2022-10-04T00:38:00.851Z,100.00
2022-10-04T00:40:34.767Z,100.00
2022-10-04T00:43:38.710Z,100.00
2022-10-04T00:46:26.151Z,100.00
2022-10-04T00:48:58.878Z,100.00
2022-10-04T00:51:43.244Z,100.00
2022-10-04T00:54:12.716Z,100.00
2022-10-04T00:56:52.750Z,100.00
2022-10-04T00:59:28.496Z,100.00
2022-10-04T01:02:07.923Z,100.00
2022-10-04T01:04:46.448Z,100.00
2022-10-04T01:07:17.523Z,100.00
2022-10-04T01:09:55.968Z,100.00
2022-10-04T01:12:51.524Z,100.00
2022-10-04T01:15:42.987Z,100.00
2022-10-04T01:18:20.275Z,100.00
2022-10-04T01:20:57.090Z,100.00
2022-10-04T01:23:44.451Z,100.00
2022-10-04T01:26:29.522Z,100.00
2022-10-04T01:29:01.593Z,100.00
2022-10-04T01:31:29.530Z,100.00
2022-10-04T01:33:56.546Z,100.00
2022-10-04T01:36:23.444Z,100.00
2022-10-04T01:38:50.835Z,100.00
2022-10-04T01:41:49.119Z,100.00
2022-10-04T01:44:41.686Z,100.00
2022-10-04T01:47:41.213Z,100.00
2022-10-04T01:50:19.174Z,100.00
2022-10-04T01:52:53.590Z,100.00
2022-10-04T01:55:26.619Z,100.00
2022-10-04T01:58:00.698Z,100.00
2022-10-04T02:00:28.562Z,100.00
2022-10-04T02:03:17.517Z,100.00
2022-10-04T02:05:51.978Z,100.00
2022-10-04T02:08:25.590Z,100.00
2022-10-04T02:10:54.513Z,100.00
2022-10-04T02:13:24.247Z,100.00
2022-10-04T02:15:50.832Z,100.00
2022-10-04T02:18:20.628Z,100.00
2022-10-04T02:20:49.484Z,100.00
2022-10-04T02:23:19.409Z,100.00
2022-10-04T02:25:46.210Z,100.00
2022-10-04T02:28:15.373Z,100.00
2022-10-04T02:31:09.062Z,100.00
2022-10-04T02:33:43.718Z,100.00
2022-10-04T02:36:10.700Z,100.00
2022-10-04T02:38:44.258Z,100.00
2022-10-04T02:41:26.086Z,100.00
2022-10-04T02:44:03.176Z,100.00
2022-10-04T02:46:47.538Z,100.00
2022-10-04T02:49:26.846Z,100.00
2022-10-04T02:52:21.480Z,100.00
2022-10-04T02:55:16.695Z,100.00
2022-10-04T02:57:44.277Z,100.00
2022-10-04T03:00:19.764Z,100.00
2022-10-04T03:03:11.016Z,100.00
2022-10-04T03:05:38.641Z,100.00
2022-10-04T03:08:05.959Z,100.00
2022-10-04T03:10:32.933Z,100.00
2022-10-04T03:12:59.341Z,100.00
2022-10-04T03:15:25.715Z,100.00
2022-10-04T03:17:52.271Z,100.00
2022-10-04T03:20:21.239Z,100.00
2022-10-04T03:22:52.450Z,100.00
2022-10-04T03:25:24.898Z,100.00
2022-10-04T03:27:51.971Z,100.00
2022-10-04T03:30:21.672Z,100.00
2022-10-04T03:32:49.443Z,100.00
2022-10-04T03:35:34.577Z,100.00
2022-10-04T03:38:04.921Z,100.00
2022-10-04T03:40:33.048Z,100.00
2022-10-04T03:43:02.356Z,100.00
2022-10-04T03:45:29.711Z,100.00
2022-10-04T03:48:02.254Z,100.00
2022-10-04T03:50:34.168Z,100.00
2022-10-04T03:53:07.140Z,100.00
2022-10-04T03:55:38.640Z,100.00
2022-10-04T03:58:06.512Z,100.00
2022-10-04T04:00:38.377Z,100.00
2022-10-04T04:03:10.100Z,100.00
2022-10-04T04:05:50.950Z,100.00
2022-10-04T04:08:33.676Z,100.00
2022-10-04T04:11:04.336Z,100.00
2022-10-04T04:14:12.340Z,100.00
2022-10-04T04:16:38.970Z,100.00
2022-10-04T04:19:13.205Z,100.00
2022-10-04T04:21:41.096Z,100.00
2022-10-04T04:24:21.974Z,100.00
2022-10-04T04:27:03.116Z,100.00
2022-10-04T04:29:48.444Z,100.00
2022-10-04T04:32:44.866Z,100.00
2022-10-04T04:35:31.071Z,100.00
2022-10-04T04:38:24.508Z,100.00
2022-10-04T04:40:55.525Z,100.00
2022-10-04T04:43:25.658Z,100.00
2022-10-04T04:46:15.082Z,100.00
2022-10-04T04:48:43.201Z,100.00
2022-10-04T04:51:20.465Z,100.00
2022-10-04T04:53:48.032Z,100.00
2022-10-04T04:56:19.233Z,100.00
2022-10-04T04:58:48.711Z,100.00
2022-10-04T05:01:23.331Z,100.00
2022-10-04T05:04:17.472Z,100.00
2022-10-04T05:06:46.514Z,100.00
2022-10-04T05:09:26.134Z,100.00
2022-10-04T05:11:57.945Z,100.00
2022-10-04T05:14:24.625Z,100.00
2022-10-04T05:16:55.513Z,100.00
2022-10-04T05:19:28.271Z,100.00
2022-10-04T05:21:56.903Z,100.00
2022-10-04T05:24:28.956Z,100.00
2022-10-04T05:26:59.489Z,100.00
2022-10-04T05:29:34.511Z,100.00
2022-10-04T05:32:11.547Z,100.00
2022-10-04T05:34:40.102Z,100.00
2022-10-04T05:37:20.356Z,100.00
2022-10-04T05:40:04.813Z,100.00
2022-10-04T05:42:44.432Z,100.00
2022-10-04T05:45:31.076Z,100.00
2022-10-04T05:48:01.114Z,100.00
2022-10-04T05:50:41.464Z,100.00
2022-10-04T05:53:35.512Z,100.00
2022-10-04T05:56:29.912Z,100.00
2022-10-04T05:59:24.413Z,100.00
2022-10-04T06:02:02.640Z,100.00
2022-10-04T06:04:45.325Z,100.00
2022-10-04T06:07:16.388Z,100.00
2022-10-04T06:09:56.491Z,100.00
2022-10-04T06:12:30.058Z,100.00
2022-10-04T06:15:09.746Z,100.00
2022-10-04T06:17:56.176Z,100.00
2022-10-04T06:20:44.405Z,100.00
2022-10-04T06:23:16.817Z,100.00
2022-10-04T06:25:49.692Z,100.00
2022-10-04T06:28:51.390Z,100.00
2022-10-04T06:31:49.443Z,100.00
2022-10-04T06:34:31.037Z,100.00
2022-10-04T06:37:16.201Z,100.00
2022-10-04T06:39:57.774Z,100.00
2022-10-04T06:42:55.144Z,100.00
2022-10-04T06:45:40.081Z,100.00
2022-10-04T06:48:28.699Z,100.00
2022-10-04T06:51:18.067Z,100.00
2022-10-04T06:54:12.336Z,100.00
2022-10-04T06:56:58.442Z,100.00
2022-10-04T06:59:44.894Z,100.00
2022-10-04T07:02:29.237Z,100.00
2022-10-04T07:05:09.396Z,100.00
2022-10-04T07:07:39.524Z,100.00
2022-10-04T07:10:31.265Z,100.00
2022-10-04T07:13:03.659Z,100.00
2022-10-04T07:15:50.823Z,100.00
2022-10-04T07:18:25.054Z,100.00
2022-10-04T07:21:01.610Z,100.00
2022-10-04T07:23:44.994Z,100.00
2022-10-04T07:26:23.535Z,100.00
2022-10-04T07:29:10.499Z,100.00
2022-10-04T07:31:38.667Z,100.00
2022-10-04T07:34:17.146Z,100.00
2022-10-04T07:36:48.927Z,100.00
2022-10-04T07:39:18.932Z,100.00
2022-10-04T07:41:50.289Z,100.00
2022-10-04T07:44:27.380Z,100.00
2022-10-04T07:47:12.927Z,100.00
2022-10-04T07:49:40.654Z,100.00
2022-10-04T07:52:32.735Z,100.00
2022-10-04T07:55:07.766Z,100.00
2022-10-04T07:58:09.406Z,100.00
2022-10-04T08:01:02.372Z,100.00
2022-10-04T08:03:50.649Z,100.00
2022-10-04T08:06:37.656Z,100.00
2022-10-04T08:09:30.372Z,100.00
2022-10-04T08:12:11.188Z,100.00
2022-10-04T08:14:43.677Z,100.00
2022-10-04T08:17:15.333Z,100.00
2022-10-04T08:20:07.041Z,100.00
2022-10-04T08:22:40.804Z,100.00
2022-10-04T08:25:42.398Z,100.00
2022-10-04T08:28:36.793Z,100.00
2022-10-04T08:31:39.289Z,100.00
2022-10-04T08:34:31.718Z,100.00
2022-10-04T08:37:19.802Z,100.00
2022-10-04T08:40:33.674Z,100.00
2022-10-04T08:43:38.148Z,100.00
2022-10-04T08:46:25.903Z,100.00
2022-10-04T08:49:08.964Z,100.00
2022-10-04T08:52:09.492Z,100.00
2022-10-04T08:54:45.218Z,100.00
2022-10-04T08:57:15.881Z,100.00
2022-10-04T08:59:57.949Z,100.00
2022-10-04T09:02:24.289Z,100.00
2022-10-04T09:05:33.871Z,100.00
2022-10-04T09:08:38.126Z,100.00
2022-10-04T09:11:10.367Z,100.00
2022-10-04T09:14:00.953Z,100.00
2022-10-04T09:16:56.568Z,100.00
2022-10-04T09:19:34.022Z,100.00
2022-10-04T09:22:16.815Z,100.00
2022-10-04T09:25:20.308Z,100.00
2022-10-04T09:28:17.828Z,100.00
2022-10-04T09:31:00.393Z,100.00
2022-10-04T09:33:43.288Z,100.00
2022-10-04T09:36:32.682Z,100.00
2022-10-04T09:39:31.230Z,100.00
2022-10-04T09:42:26.367Z,100.00
2022-10-04T09:45:06.130Z,100.00
2022-10-04T09:47:40.880Z,100.00
2022-10-04T09:50:26.715Z,100.00
2022-10-04T09:53:20.368Z,100.00
2022-10-04T09:56:11.225Z,100.00
2022-10-04T09:59:14.640Z,100.00
2022-10-04T10:02:28.992Z,100.00
2022-10-04T10:05:24.870Z,100.00
2022-10-04T10:08:11.000Z,100.00
2022-10-04T10:11:25.857Z,100.00
2022-10-04T10:14:23.233Z,100.00
2022-10-04T10:17:37.785Z,100.00
2022-10-04T10:20:40.798Z,100.00
2022-10-04T10:23:45.283Z,100.00
2022-10-04T10:26:32.830Z,100.00
2022-10-04T10:29:04.391Z,100.00
2022-10-04T10:31:51.270Z,100.00
2022-10-04T10:34:36.340Z,100.00
2022-10-04T10:37:35.619Z,100.00
2022-10-04T10:40:23.653Z,100.00
2022-10-04T10:43:04.024Z,100.00
2022-10-04T10:45:38.016Z,100.00
2022-10-04T10:48:43.827Z,100.00
2022-10-04T10:51:18.454Z,100.00
2022-10-04T10:54:18.145Z,100.00
2022-10-04T10:56:56.570Z,100.00
2022-10-04T11:00:12.804Z,100.00
2022-10-04T11:03:13.032Z,100.00
2022-10-04T11:06:15.491Z,100.00
2022-10-04T11:09:20.387Z,100.00
2022-10-04T11:12:05.557Z,100.00
2022-10-04T11:15:25.926Z,100.00
2022-10-04T11:18:46.345Z,100.00
2022-10-04T11:21:21.718Z,100.00
2022-10-04T11:23:59.346Z,100.00
2022-10-04T11:27:03.914Z,100.00
2022-10-04T11:29:35.992Z,98.00
2022-10-04T11:32:02.265Z,97.94
2022-10-04T11:34:59.471Z,95.43
2022-10-04T11:37:53.585Z,95.10
2022-10-04T11:40:47.961Z,95.47
2022-10-04T11:43:52.447Z,94.19
2022-10-04T11:46:29.547Z,92.99
2022-10-04T11:49:05.984Z,91.12
2022-10-04T11:52:04.513Z,92.58
2022-10-04T11:55:01.823Z,91.99
2022-10-04T11:57:40.540Z,91.07
2022-10-04T12:00:11.680Z,91.03
2022-10-04T12:03:13.672Z,91.19
2022-10-04T12:06:23.304Z,91.77
2022-10-04T12:09:31.723Z,90.41
2022-10-04T12:12:39.480Z,89.24
2022-10-04T12:15:38.367Z,89.64
2022-10-04T12:18:28.377Z,89.61
2022-10-04T12:21:06.976Z,88.96
2022-10-04T12:24:05.306Z,89.31
2022-10-04T12:26:54.812Z,87.91
2022-10-04T12:30:00.042Z,85.93
2022-10-04T12:32:32.064Z,86.12
2022-10-04T12:35:08.866Z,85.83
2022-10-04T12:37:56.939Z,85.58
2022-10-04T12:40:47.247Z,84.35
2022-10-04T12:43:14.687Z,83.08
2022-10-04T12:46:07.042Z,83.79
2022-10-04T12:48:47.355Z,82.23
2022-10-04T12:51:42.510Z,81.94
2022-10-04T12:54:31.902Z,82.23
2022-10-04T12:57:13.395Z,82.03
2022-10-04T12:59:48.747Z,82.67
2022-10-04T13:02:26.817Z,80.69
2022-10-04T13:05:01.571Z,80.88
2022-10-04T13:07:51.222Z,81.04
2022-10-04T13:10:44.385Z,81.01
2022-10-04T13:13:29.250Z,81.00
2022-10-04T13:19:19.395Z,78.68
2022-10-04T13:22:55.469Z,79.39
2022-10-04T13:25:31.740Z,79.60
2022-10-04T13:28:08.180Z,80.82
2022-10-04T13:30:43.433Z,80.39
2022-10-04T13:33:09.884Z,81.05
2022-10-04T13:36:08.336Z,81.40
2022-10-04T13:38:40.431Z,80.59
2022-10-04T13:41:15.498Z,79.97
2022-10-04T13:44:10.296Z,79.41
2022-10-04T13:47:17.562Z,79.08
2022-10-04T13:50:15.034Z,79.57
2022-10-04T13:53:23.356Z,77.53
2022-10-04T13:56:26.758Z,79.09
2022-10-04T13:58:56.109Z,78.19
2022-10-04T14:01:31.206Z,79.11
2022-10-04T14:04:11.786Z,78.95
2022-10-04T14:07:02.989Z,77.79
2022-10-04T14:10:23.532Z,77.83
2022-10-04T14:13:07.523Z,77.47
2022-10-04T14:16:05.723Z,78.30
2022-10-04T14:18:54.595Z,78.77
2022-10-04T14:21:59.956Z,78.00
2022-10-04T14:24:35.338Z,76.53
2022-10-04T14:27:22.355Z,77.80
2022-10-04T14:30:07.922Z,77.52
2022-10-04T14:33:07.590Z,77.52
2022-10-04T14:35:41.435Z,77.45
2022-10-04T14:38:38.915Z,77.03
2022-10-04T14:41:31.667Z,78.29
2022-10-04T14:44:23.359Z,78.97
2022-10-04T14:47:05.796Z,78.51
2022-10-04T14:50:01.135Z,78.83
2022-10-04T14:52:48.175Z,78.57
2022-10-04T14:55:49.547Z,78.09
2022-10-04T14:58:16.160Z,77.24
2022-10-04T15:01:20.421Z,77.94
2022-10-04T15:04:06.942Z,78.59
2022-10-04T15:06:43.233Z,79.36
2022-10-04T15:09:52.109Z,80.01
2022-10-04T15:12:51.977Z,79.14
2022-10-04T15:15:31.777Z,79.47
2022-10-04T15:18:04.185Z,79.14
2022-10-04T15:20:55.799Z,79.78
2022-10-04T15:23:38.166Z,82.10
2022-10-04T15:26:07.035Z,81.96
2022-10-04T15:28:50.357Z,81.85
2022-10-04T15:31:35.027Z,81.35
2022-10-04T15:34:01.414Z,82.51
2022-10-04T15:36:51.711Z,83.21
2022-10-04T15:39:33.650Z,83.55
2022-10-04T15:42:11.702Z,84.91
2022-10-04T15:45:04.691Z,84.52
2022-10-04T15:47:51.278Z,84.44
2022-10-04T15:50:26.891Z,84.52
2022-10-04T15:53:10.418Z,85.11
2022-10-04T15:55:36.697Z,84.08
2022-10-04T15:58:24.791Z,85.60
2022-10-04T16:01:13.042Z,85.44
2022-10-04T16:03:50.296Z,85.59
2022-10-04T16:06:27.858Z,87.00
2022-10-04T16:09:17.111Z,87.77
2022-10-04T16:12:32.283Z,88.52
2022-10-04T16:15:12.743Z,89.51
2022-10-04T16:17:58.657Z,91.08
2022-10-04T16:20:59.657Z,92.01
2022-10-04T16:23:31.741Z,93.03
2022-10-04T16:26:10.884Z,94.84
2022-10-04T16:28:51.420Z,96.04
2022-10-04T16:31:39.197Z,96.76
2022-10-04T16:34:07.066Z,97.25
2022-10-04T16:36:45.474Z,98.24
2022-10-04T16:39:31.794Z,98.93
2022-10-04T16:42:03.827Z,100.00
2022-10-04T16:44:47.976Z,100.00
2022-10-04T16:47:34.763Z,100.00
2022-10-04T16:50:04.696Z,100.00
2022-10-04T16:52:58.827Z,100.00
2022-10-04T16:55:28.330Z,100.00
2022-10-04T16:58:29.486Z,100.00
2022-10-04T17:01:23.840Z,100.00
2022-10-04T17:04:05.483Z,100.00
2022-10-04T17:06:52.479Z,100.00
2022-10-04T17:10:12.563Z,100.00
2022-10-04T17:13:17.685Z,100.00
2022-10-04T17:16:14.563Z,100.00
2022-10-04T17:19:07.959Z,100.00
2022-10-04T17:21:43.172Z,100.00
2022-10-04T17:24:20.961Z,100.00
2022-10-04T17:27:12.915Z,100.00
2022-10-04T17:30:18.242Z,100.00
2022-10-04T17:33:06.117Z,100.00
2022-10-04T17:36:20.066Z,100.00
2022-10-04T17:38:59.952Z,100.00
2022-10-04T17:42:02.900Z,100.00
2022-10-04T17:45:07.645Z,100.00
2022-10-04T17:47:57.810Z,100.00
2022-10-04T17:51:05.016Z,100.00
2022-10-04T17:53:54.376Z,100.00
2022-10-04T17:56:42.592Z,100.00
2022-10-04T17:59:18.020Z,100.00
2022-10-04T18:01:49.294Z,100.00
2022-10-04T18:04:27.890Z,100.00
2022-10-04T18:07:01.867Z,100.00
2022-10-04T18:09:33.861Z,100.00
2022-10-04T18:12:05.955Z,100.00
2022-10-04T18:14:35.159Z,100.00
2022-10-04T18:17:09.201Z,100.00
2022-10-04T18:19:49.229Z,100.00
2022-10-04T18:22:21.595Z,100.00
2022-10-04T18:25:09.839Z,100.00
2022-10-04T18:27:49.102Z,100.00
2022-10-04T18:30:18.959Z,100.00
2022-10-04T18:32:57.241Z,100.00
2022-10-04T18:35:27.255Z,100.00
2022-10-04T18:38:11.771Z,100.00
2022-10-04T18:40:43.281Z,100.00
2022-10-04T18:43:40.159Z,100.00
2022-10-04T18:46:26.854Z,100.00
2022-10-04T18:49:13.366Z,100.00
2022-10-04T18:52:01.494Z,100.00
2022-10-04T18:55:18.266Z,100.00
2022-10-04T18:58:17.702Z,100.00
2022-10-04T19:01:12.254Z,100.00
2022-10-04T19:03:52.793Z,100.00
2022-10-04T19:06:27.161Z,100.00
2022-10-04T19:09:41.547Z,100.00
2022-10-04T19:12:36.614Z,100.00
2022-10-04T19:15:15.212Z,100.00
2022-10-04T19:17:49.836Z,100.00
2022-10-04T19:20:26.259Z,100.00
2022-10-04T19:23:34.935Z,100.00
2022-10-04T19:26:31.264Z,100.00
2022-10-04T19:29:08.792Z,100.00
2022-10-04T19:31:54.204Z,100.00
2022-10-04T19:34:32.854Z,100.00
2022-10-04T19:37:06.901Z,100.00
2022-10-04T19:40:07.546Z,100.00
2022-10-04T19:43:07.764Z,100.00
2022-10-04T19:46:11.606Z,100.00
2022-10-04T19:48:49.806Z,100.00
2022-10-04T19:51:38.175Z,100.00
2022-10-04T19:54:15.634Z,100.00
2022-10-04T19:56:47.137Z,100.00
2022-10-04T19:59:22.871Z,100.00
2022-10-04T20:01:52.970Z,100.00
2022-10-04T20:04:37.942Z,100.00
2022-10-04T20:07:18.321Z,100.00
2022-10-04T20:09:47.717Z,100.00
2022-10-04T20:12:37.355Z,100.00
2022-10-04T20:15:16.804Z,100.00
2022-10-04T20:17:48.146Z,100.00
2022-10-04T20:20:43.343Z,100.00
2022-10-04T20:23:10.547Z,100.00
2022-10-04T20:25:45.907Z,100.00
2022-10-04T20:28:32.330Z,100.00
2022-10-04T20:31:02.120Z,100.00
2022-10-04T20:33:34.284Z,100.00
2022-10-04T20:36:02.505Z,100.00
2022-10-04T20:38:52.408Z,100.00
2022-10-04T20:41:27.781Z,100.00
2022-10-04T20:43:59.036Z,100.00
2022-10-04T20:46:27.091Z,100.00
2022-10-04T20:48:54.169Z,100.00
2022-10-04T20:51:22.615Z,100.00
2022-10-04T20:53:51.999Z,100.00
2022-10-04T20:56:24.308Z,100.00
2022-10-04T20:58:52.167Z,100.00
2022-10-04T21:01:41.337Z,100.00
2022-10-04T21:04:26.416Z,100.00
2022-10-04T21:06:53.470Z,100.00
2022-10-04T21:09:20.220Z,100.00
2022-10-04T21:11:50.444Z,100.00
2022-10-04T21:14:24.736Z,100.00
2022-10-04T21:16:55.599Z,100.00
2022-10-04T21:19:35.477Z,100.00
2022-10-04T21:22:06.882Z,100.00
2022-10-04T21:24:43.177Z,100.00
2022-10-04T21:27:12.595Z,100.00
2022-10-04T21:29:39.599Z,100.00
2022-10-04T21:32:06.141Z,100.00
2022-10-04T21:34:52.574Z,100.00
2022-10-04T21:37:20.519Z,100.00
2022-10-04T21:39:46.963Z,100.00
2022-10-04T21:42:13.350Z,100.00
2022-10-04T21:44:39.727Z,100.00
2022-10-04T21:47:06.062Z,100.00
2022-10-04T21:49:32.388Z,100.00
2022-10-04T21:51:58.752Z,100.00
2022-10-04T21:54:25.028Z,100.00
2022-10-04T21:56:51.307Z,100.00
2022-10-04T21:59:17.592Z,100.00
2022-10-04T22:01:43.888Z,100.00
2022-10-04T22:04:10.629Z,100.00
2022-10-04T22:06:37.074Z,100.00
2022-10-04T22:09:03.894Z,100.00
2022-10-04T22:11:30.561Z,100.00
2022-10-04T22:13:56.845Z,100.00
2022-10-04T22:16:23.188Z,100.00
2022-10-04T22:18:49.623Z,100.00
2022-10-04T22:21:16.203Z,100.00
2022-10-04T22:23:43.812Z,100.00
2022-10-04T22:26:13.064Z,100.00
2022-10-04T22:28:44.959Z,100.00
2022-10-04T22:31:13.390Z,100.00
2022-10-04T22:33:41.891Z,100.00
2022-10-04T22:36:20.203Z,100.00
2022-10-04T22:38:54.522Z,100.00
2022-10-04T22:41:20.918Z,100.00
2022-10-04T22:43:49.510Z,100.00
2022-10-04T22:46:18.214Z,100.00
2022-10-04T22:48:46.602Z,100.00
2022-10-04T22:51:13.586Z,100.00
2022-10-04T22:53:44.961Z,100.00
2022-10-04T22:56:15.604Z,100.00
2022-10-04T22:58:42.578Z,100.00
2022-10-04T23:01:13.248Z,100.00
2022-10-04T23:03:39.588Z,100.00
2022-10-04T23:06:12.459Z,100.00
2022-10-04T23:08:39.164Z,100.00
2022-10-04T23:11:05.620Z,100.00
2022-10-04T23:13:31.965Z,100.00
2022-10-04T23:16:01.627Z,100.00
2022-10-04T23:18:29.126Z,100.00
2022-10-04T23:21:01.007Z,100.00
2022-10-04T23:23:30.305Z,100.00
2022-10-04T23:25:56.685Z,100.00
2022-10-04T23:28:24.080Z,100.00
2022-10-04T23:31:20.685Z,100.00
2022-10-04T23:33:47.065Z,100.00
2022-10-04T23:36:15.147Z,100.00
2022-10-04T23:39:12.890Z,100.00
2022-10-04T23:41:39.424Z,100.00
2022-10-04T23:44:13.130Z,100.00
2022-10-04T23:46:39.570Z,100.00
2022-10-04T23:49:09.195Z,100.00
2022-10-04T23:51:35.776Z,100.00
2022-10-04T23:54:02.054Z,100.00
2022-10-04T23:56:29.312Z,100.00
2022-10-04T23:58:58.665Z,100.00
